D/T METAR WX W/SPE G/SPE TEMP DEWP FEEL
25/05/22 01:50 EGLL 250050Z AUTO 25008KT 9999 NCD 10/07 Q1012 NOSIG 9.2mph 10°C 7°C 10.0°C
25/05/22 01:20 EGLL 250020Z AUTO 24007KT 9999 NCD 10/06 Q1012 NOSIG 8.1mph 10°C 6°C 9.6°C
25/05/22 00:50 EGLL 242350Z AUTO 24007KT 9999 NCD 11/07 Q1012 8.1mph 11°C 7°C 11.0°C
25/05/22 00:20 EGLL 242320Z AUTO 24007KT 9999 NCD 11/07 Q1012 NOSIG 8.1mph 11°C 7°C 11.0°C
24/05/22 23:50 EGLL 242250Z AUTO 25008KT 9999 NCD 12/07 Q1011 NOSIG 9.2mph 12°C 7°C 12.0°C
24/05/22 23:20 EGLL 242220Z AUTO 24008KT 9999 NCD 13/07 Q1011 9.2mph 13°C 7°C 13.0°C
24/05/22 22:50 EGLL 242150Z AUTO 25010KT 9999 NCD 13/07 Q1011 11.5mph 13°C 7°C 13.0°C
24/05/22 22:20 EGLL 242120Z AUTO 27009KT 9999 NCD 14/07 Q1011 NOSIG 10.4mph 14°C 7°C 14.0°C
24/05/22 21:50 EGLL 242050Z AUTO 27010KT 9999 NCD 14/07 Q1011 NOSIG 11.5mph 14°C 7°C 14.0°C
24/05/22 21:20 EGLL 242020Z AUTO 28007KT 9999 NCD 14/07 Q1010 NOSIG 8.1mph 14°C 7°C 14.0°C
24/05/22 20:50 EGLL 241950Z AUTO 29007KT 9999 NCD 14/06 Q1010 8.1mph 14°C 6°C 13.6°C
24/05/22 20:20 EGLL 241920Z AUTO 28007KT 9999 NCD 15/05 Q1009 NOSIG 8.1mph 15°C 5°C 14.3°C
24/05/22 19:20 EGLL 241820Z AUTO 30006KT 9999 //////CB 16/06 Q1009 NOSIG 6.9mph 16°C 6°C 15.6°C
24/05/22 18:50 EGLL 241750Z AUTO 30009KT 270V340 9999 SCT048/// //////CB 17/07 Q1009 10.4mph 17°C 7°C 17.0°C
24/05/22 18:20 EGLL 241720Z AUTO 27008KT 9999 BKN049/// //////CB 16/06 Q1008 NOSIG 9.2mph 16°C 6°C 15.6°C
24/05/22 17:50 EGLL 241650Z AUTO 31007KT 270V340 9999 -RA SCT049/// //////TCU 16/07 Q1008 NOSIG -RA 8.1mph 16°C 7°C 16.0°C
24/05/22 17:20 EGLL 241620Z AUTO 32003KT 270V030 9999 SCT045/// //////CB 17/09 Q1008 3.5mph 17°C 9°C 17.8°C
24/05/22 16:20 EGLL 241520Z AUTO 22007KT 180V300 9999 //////CB 17/06 Q1008 TEMPO 4000 +SHRA 8.1mph 17°C 6°C 16.6°C
24/05/22 15:50 EGLL 241450Z AUTO 26012KT 9999 -RA //////CB 15/08 Q1007 -RA 13.8mph 15°C 8°C 15.4°C
24/05/22 14:50 EGLL 241350Z AUTO 32008KT 290V360 9999 SCT043 17/07 Q1007 TEMPO 4000 +SHRA 9.2mph 17°C 7°C 17.0°C
24/05/22 14:20 EGLL 241320Z AUTO 26014KT 9999 //////CB 18/06 Q1006 TEMPO SHRA 16.1mph 18°C 6°C 17.6°C
24/05/22 13:50 EGLL 241250Z 26011KT 220V300 9999 FEW037CB 17/07 Q1006 TEMPO SHRA 12.7mph 17°C 7°C 17.0°C
24/05/22 13:20 EGLL 241220Z 25011KT 200V350 9999 SCT035CB BKN043 16/10 Q1006 TEMPO SHRA 12.7mph 16°C 10°C 17.3°C
24/05/22 13:20 EGLL 241220Z 25011KT 200V350 9999 SCT035CB BKN043 16/10 Q1006 12.7mph 16°C 10°C 17.3°C
24/05/22 12:50 EGLL 241150Z 25010KT 210V270 9999 SCT029CB BKN036 15/10 Q1006 RESHRA 11.5mph 15°C 10°C 16.3°C
24/05/22 12:20 EGLL 241120Z 30007KT 260V330 9999 3000SE +SHRA VCTS BKN029CB 13/09 Q1006 RESHRA TEMPO SHRA VCTS +SHRA 8.1mph 13°C 9°C 13.8°C
24/05/22 11:50 EGLL 241050Z AUTO 29006KT 250V310 9999 FEW031/// //////CB 14/09 Q1006 RESHRA TEMPO 3000 +TSRA 6.9mph 14°C 9°C 14.8°C
24/05/22 11:20 EGLL 241020Z 28008KT 250V320 9999 4000S SHRA SCT028CB BKN039 15/08 Q1006 SHRA 9.2mph 15°C 8°C 15.4°C
24/05/22 10:50 EGLL 240950Z AUTO 28008KT 250V310 9999 SCT021/// //////TCU 15/08 Q1005 TEMPO SHRA 9.2mph 15°C 8°C 15.4°C
24/05/22 10:20 EGLL 240920Z AUTO 26009KT 9999 SCT020/// BKN040/// //////CB 13/08 Q1005 TEMPO SHRA 10.4mph 13°C 8°C 13.4°C
24/05/22 09:50 EGLL 240850Z AUTO 29008KT 9999 SCT016/// BKN040/// //////TCU 13/09 Q1005 TEMPO 8000 SHRA 9.2mph 13°C 9°C 13.8°C
24/05/22 08:50 EGLL 240750Z AUTO 28008KT 9999 BKN012 BKN023 13/10 Q1005 TEMPO 8000 SHRA SCT012 9.2mph 13°C 10°C 14.3°C
24/05/22 08:20 EGLL 240720Z AUTO 28008KT 9999 BKN009 BKN013 OVC020 11/10 Q1004 TEMPO SCT012 9.2mph 11°C 10°C 12.3°C
24/05/22 08:20 EGLL 240720Z AUTO 28008KT 9999 BKN009 BKN013 OVC020 11/10 Q1004 9.2mph 11°C 10°C 12.3°C
24/05/22 07:20 EGLL 240620Z AUTO 28006KT 9999 BKN009 11/09 Q1004 TEMPO SCT009 6.9mph 11°C 9°C 11.8°C
24/05/22 06:50 EGLL 240550Z AUTO 27008KT 9999 -RA BKN009 BKN018 11/09 Q1003 BECMG SCT010 -RA 9.2mph 11°C 9°C 11.8°C
24/05/22 06:20 EGLL 240520Z AUTO 25007KT 9999 -RA FEW010/// SCT031/// //////CB 10/09 Q1003 NOSIG -RA 8.1mph 10°C 9°C 10.8°C
24/05/22 05:50 EGLL 240450Z AUTO 25007KT 9999 BKN008/// BKN041/// //////TCU 10/09 Q1003 BECMG SCT008 8.1mph 10°C 9°C 10.8°C
24/05/22 05:20 EGLL 240420Z AUTO 26007KT 9999 SCT008/// BKN015/// BKN032/// //////CB 10/09 Q1002 TEMPO -RA BKN008 8.1mph 10°C 9°C 10.8°C
24/05/22 04:50 EGLL 240350Z AUTO 26008KT 7000 -RA BKN008/// BKN025/// BKN040/// //////CB 10/09 Q1002 RERA BECMG FEW008 -RA 9.2mph 10°C 9°C 10.8°C
24/05/22 04:20 EGLL 240320Z AUTO 25008KT 4900 RA SCT008/// BKN014/// BKN041/// //////CB 10/09 Q1002 RA 9.2mph 10°C 9°C 10.8°C
24/05/22 03:50 EGLL 240250Z AUTO 24008KT 9999 FEW022/// BKN027/// BKN042/// //////TCU 10/09 Q1002 TEMPO SHRA 9.2mph 10°C 9°C 10.8°C
24/05/22 03:20 EGLL 240220Z AUTO 25008KT 9999 BKN045 10/09 Q1002 NOSIG 9.2mph 10°C 9°C 10.8°C
24/05/22 02:50 EGLL 240150Z AUTO 27006KT 9999 NCD 10/09 Q1001 NOSIG 6.9mph 10°C 9°C 10.8°C
24/05/22 02:20 EGLL 240120Z AUTO 28007KT 9999 -RA NCD 10/08 Q1001 -RA 8.1mph 10°C 8°C 10.4°C
24/05/22 01:50 EGLL 240050Z AUTO 27008KT 9999 -RA NCD 10/09 Q1001 -RA 9.2mph 10°C 9°C 10.8°C
24/05/22 01:20 EGLL 240020Z AUTO 27008KT 9999 -RA NCD 10/09 Q1002 -RA 9.2mph 10°C 9°C 10.8°C
24/05/22 00:50 EGLL 232350Z AUTO 27009KT 9999 -RA OVC047 10/09 Q1002 TEMPO SHRA -RA 10.4mph 10°C 9°C 10.8°C
24/05/22 00:20 EGLL 232320Z AUTO 27009KT 9999 -RA //////CB 10/09 Q1002 TEMPO SHRA -RA 10.4mph 10°C 9°C 10.8°C
23/05/22 23:50 EGLL 232250Z AUTO 27010KT 9999 -RA FEW022/// //////TCU 11/09 Q1002 TEMPO SHRA -RA 11.5mph 11°C 9°C 11.8°C
23/05/22 23:20 EGLL 232220Z AUTO 28009KT 8000 -RA FEW025/// BKN032/// OVC049/// //////TCU 11/09 Q1001 TEMPO 4000 SHRA -RA 10.4mph 11°C 9°C 11.8°C
23/05/22 22:50 EGLL 232150Z AUTO 29006KT 8000 -RA BKN023/// BKN032/// OVC041/// //////TCU 13/09 Q1001 TEMPO 4000 SHRA -RA 6.9mph 13°C 9°C 13.8°C
23/05/22 22:20 EGLL 232120Z AUTO 29007KT 9999 -RA BKN026/// //////CB 13/08 Q1001 TEMPO SHRA -RA 8.1mph 13°C 8°C 13.4°C
23/05/22 21:50 EGLL 232050Z AUTO 28007KT 9999 BKN024 14/09 Q1001 8.1mph 14°C 9°C 14.8°C
23/05/22 21:20 EGLL 232020Z AUTO 26009KT 9999 BKN028 14/09 Q1001 TEMPO SHRA 10.4mph 14°C 9°C 14.8°C
23/05/22 20:50 EGLL 231950Z AUTO 25007KT 9999 SCT030 14/09 Q1001 NOSIG 8.1mph 14°C 9°C 14.8°C
23/05/22 19:50 EGLL 231850Z AUTO 32004KT 9999 FEW036 14/09 Q1001 NOSIG 4.6mph 14°C 9°C 14.8°C
23/05/22 19:20 EGLL 231820Z 30007KT 270V330 9999 FEW030 SCT045 14/09 Q1001 8.1mph 14°C 9°C 14.8°C
23/05/22 18:50 EGLL 231750Z AUTO 30009KT 9999 -RA SCT044/// //////CB 14/09 Q1000 RERA TEMPO SHRA -RA 10.4mph 14°C 9°C 14.8°C
23/05/22 18:20 EGLL 231720Z AUTO 27011KT 9999 SCT049/// //////CB 17/08 Q1000 TEMPO 4000 +SHRA 12.7mph 17°C 8°C 17.4°C
23/05/22 17:50 EGLL 231650Z AUTO 27011KT 9999 NCD 19/08 Q1000 TEMPO SHRA 12.7mph 19°C 8°C 19.4°C
23/05/22 17:20 EGLL 231620Z AUTO 26010KT 9999 NCD 18/07 Q1000 TEMPO SHRA 11.5mph 18°C 7°C 18.0°C
23/05/22 16:50 EGLL 231550Z AUTO 27009KT 250V310 9999 NCD 19/06 Q1000 10.4mph 19°C 6°C 18.6°C
23/05/22 16:20 EGLL 231520Z AUTO 26012KT 9999 FEW048 19/07 Q1000 13.8mph 19°C 7°C 19.0°C
23/05/22 15:50 EGLL 231450Z AUTO 27009KT 250V320 9999 NCD 18/07 Q1000 NOSIG 10.4mph 18°C 7°C 18.0°C
23/05/22 15:20 EGLL 231420Z AUTO 27011KT 9999 BKN040 19/08 Q1000 NOSIG 12.7mph 19°C 8°C 19.4°C
23/05/22 14:50 EGLL 231350Z AUTO 27009KT 9999 OVC038 17/09 Q1001 NOSIG 10.4mph 17°C 9°C 17.8°C
23/05/22 14:20 EGLL 231320Z AUTO 26010KT 9999 BKN030 BKN043 17/09 Q1001 NOSIG 11.5mph 17°C 9°C 17.8°C
23/05/22 13:50 EGLL 231250Z AUTO 32003KT 260V360 9999 FEW029 SCT037 17/10 Q1001 NOSIG 3.5mph 17°C 10°C 18.3°C
23/05/22 13:20 EGLL 231220Z AUTO 30004KT 260V340 9999 FEW027 BKN032 OVC044 16/10 Q1001 NOSIG 4.6mph 16°C 10°C 17.3°C
23/05/22 12:20 EGLL 231120Z AUTO 31007KT 9999 OVC024 16/10 Q1001 8.1mph 16°C 10°C 17.3°C
23/05/22 11:20 EGLL 231020Z AUTO 30006KT 250V350 9999 SCT025 BKN031 17/11 Q1002 6.9mph 17°C 11°C 18.8°C
23/05/22 10:20 EGLL 230920Z AUTO 31005KT 260V350 9999 SCT019 17/12 Q1002 NOSIG 5.8mph 17°C 12°C 19.3°C
23/05/22 09:20 EGLL 230820Z AUTO 31005KT 280V010 9999 NCD 16/11 Q1002 NOSIG 5.8mph 16°C 11°C 17.8°C
23/05/22 08:50 EGLL 230750Z AUTO 29007KT 270V330 9999 NCD 16/11 Q1003 NOSIG 8.1mph 16°C 11°C 17.8°C
23/05/22 07:50 EGLL 230650Z AUTO 28005KT 9999 NCD 14/10 Q1003 NOSIG 5.8mph 14°C 10°C 15.3°C
23/05/22 07:20 EGLL 230620Z AUTO 29004KT 250V330 9999 SCT049 13/09 Q1004 4.6mph 13°C 9°C 13.8°C
23/05/22 06:20 EGLL 230520Z AUTO 24004KT 200V280 9999 BKN048 12/08 Q1004 4.6mph 12°C 8°C 12.4°C
23/05/22 05:50 EGLL 230450Z AUTO 27006KT 9999 OVC037 12/08 Q1004 NOSIG 6.9mph 12°C 8°C 12.4°C
23/05/22 04:50 EGLL 230350Z AUTO 28004KT 9999 SCT049 12/08 Q1005 4.6mph 12°C 8°C 12.4°C
23/05/22 04:20 EGLL 230320Z AUTO 27006KT 9999 BKN048 12/08 Q1005 NOSIG 6.9mph 12°C 8°C 12.4°C
23/05/22 03:50 EGLL 230250Z AUTO 28004KT 9999 FEW048 12/08 Q1005 4.6mph 12°C 8°C 12.4°C
23/05/22 03:20 EGLL 230220Z AUTO 26003KT 9999 NCD 12/08 Q1006 NOSIG 3.5mph 12°C 8°C 12.4°C
23/05/22 02:50 EGLL 230150Z AUTO 25003KT 9999 NCD 13/08 Q1006 3.5mph 13°C 8°C 13.4°C
23/05/22 01:50 EGLL 230050Z AUTO 22004KT 9999 NCD 13/08 Q1007 NOSIG 4.6mph 13°C 8°C 13.4°C
23/05/22 01:20 EGLL 230020Z AUTO 23005KT 9999 NCD 13/08 Q1007 NOSIG 5.8mph 13°C 8°C 13.4°C
23/05/22 00:50 EGLL 222350Z AUTO 22005KT 9999 NCD 13/08 Q1007 NOSIG 5.8mph 13°C 8°C 13.4°C
23/05/22 00:20 EGLL 222320Z AUTO 21005KT 9999 NCD 14/08 Q1008 NOSIG 5.8mph 14°C 8°C 14.4°C
22/05/22 23:50 EGLL 222250Z AUTO 22006KT 9999 NCD 14/08 Q1008 NOSIG 6.9mph 14°C 8°C 14.4°C
22/05/22 23:20 EGLL 222220Z AUTO 20006KT 180V250 9999 NCD 15/08 Q1008 6.9mph 15°C 8°C 15.4°C
22/05/22 22:50 EGLL 222150Z AUTO 22005KT 190V260 9999 NCD 15/08 Q1008 NOSIG 5.8mph 15°C 8°C 15.4°C
22/05/22 21:50 EGLL 222050Z AUTO 19005KT 160V230 9999 NCD 16/08 Q1008 NOSIG 5.8mph 16°C 8°C 16.4°C
22/05/22 21:20 EGLL 222020Z AUTO 21006KT 170V250 9999 NCD 17/07 Q1008 NOSIG 6.9mph 17°C 7°C 17.0°C
22/05/22 20:50 EGLL 221950Z AUTO 20008KT 9999 NCD 18/07 Q1008 NOSIG 9.2mph 18°C 7°C 18.0°C
22/05/22 20:20 EGLL 221920Z AUTO 20009KT 9999 NCD 19/06 Q1009 10.4mph 19°C 6°C 18.6°C
22/05/22 19:50 EGLL 221850Z AUTO 20010KT 9999 NCD 19/07 Q1009 NOSIG 11.5mph 19°C 7°C 19.0°C